Time;durP1;ratioP1;P1;durP2;ratioP2;P2;SDS_P1;SDS_P2;PMS_P1;PMS_P2;Temp;Humidity;BMP_temperature;BMP_pressure;BME280_temperature;BME280_humidity;BME280_pressure;Samples;Min_cycle;Max_cycle;Signal;HPM_P1;HPM_P2
2024/04/19 00:00:51;;;;;;;6.80;1.40;;;;;;;13.89;100.00;98919.35;109493;1251;75372;-60
2024/04/19 00:03:20;;;;;;;3.90;1.40;;;;;;;13.86;100.00;98915.92;109412;1251;66163;-61
2024/04/19 00:05:48;;;;;;;3.50;1.10;;;;;;;13.83;100.00;98921.30;109484;1251;72765;-54
2024/04/19 00:08:35;;;;;;;3.30;1.10;;;;;;;13.79;100.00;98929.10;109467;1251;60046;-54
2024/04/19 00:11:03;;;;;;;4.30;1.20;;;;;;;13.77;100.00;98933.26;109452;1251;59812;-54
2024/04/19 00:13:30;;;;;;;4.00;1.50;;;;;;;13.73;100.00;98939.06;109412;1251;76283;-54
2024/04/19 00:15:58;;;;;;;2.90;1.20;;;;;;;13.69;100.00;98940.28;109447;1251;67090;-54
2024/04/19 00:18:26;;;;;;;3.20;1.30;;;;;;;13.61;100.00;98932.56;109448;1251;72751;-54
2024/04/19 00:20:57;;;;;;;4.80;1.30;;;;;;;13.52;100.00;98932.60;109440;1251;60484;-54
2024/04/19 00:23:24;;;;;;;2.50;1.30;;;;;;;13.38;100.00;98934.02;109443;1251;59824;-54
2024/04/19 00:25:53;;;;;;;6.10;1.90;;;;;;;13.30;100.00;98936.27;109455;1251;75886;-54
2024/04/19 00:28:36;;;;;;;3.30;1.60;;;;;;;13.22;100.00;98938.26;109475;1251;65626;-54
2024/04/19 00:31:04;;;;;;;3.10;1.40;;;;;;;13.20;100.00;98942.60;109428;1251;73776;-54
2024/04/19 00:33:31;;;;;;;7.30;1.90;;;;;;;13.19;100.00;98949.70;109443;1251;60690;-54
2024/04/19 00:35:59;;;;;;;3.10;1.30;;;;;;;13.19;100.00;98954.42;109528;1251;60041;-54
2024/04/19 00:38:26;;;;;;;3.00;1.20;;;;;;;13.19;100.00;98951.52;109486;1251;74188;-54
2024/04/19 00:40:54;;;;;;;2.50;1.20;;;;;;;13.25;100.00;98945.82;109458;1251;65597;-54
2024/04/19 00:43:22;;;;;;;7.30;1.70;;;;;;;13.27;100.00;98942.52;109466;1251;72701;-53
2024/04/19 00:45:50;;;;;;;5.90;1.80;;;;;;;13.25;100.00;98950.52;109389;1251;60170;-54
2024/04/19 00:48:21;;;;;;;5.60;2.10;;;;;;;13.20;100.00;98951.06;109528;1251;60178;-54
2024/04/19 00:50:59;;;;;;;3.50;1.80;;;;;;;13.08;100.00;98945.98;109382;1251;74967;-54
2024/04/19 00:53:36;;;;;;;3.60;1.20;;;;;;;12.96;100.00;98953.10;109372;1251;67058;-54
2024/04/19 00:56:36;;;;;;;3.70;1.60;;;;;;;12.82;100.00;98949.61;109311;1251;72754;-53
2024/04/19 00:59:04;;;;;;;3.00;1.50;;;;;;;12.68;100.00;98943.52;109452;1251;60113;-53
2024/04/19 01:01:32;;;;;;;2.70;1.20;;;;;;;12.48;100.00;98938.90;109483;1251;60157;-54
2024/04/19 01:04:00;;;;;;;3.70;1.30;;;;;;;12.35;100.00;98935.63;109410;1251;75519;-54
2024/04/19 01:06:27;;;;;;;3.90;1.10;;;;;;;12.28;100.00;98932.38;109505;1251;66939;-53
2024/04/19 01:08:55;;;;;;;2.60;0.90;;;;;;;12.21;100.00;98938.42;109461;1251;71493;-53
2024/04/19 01:11:28;;;;;;;3.50;1.20;;;;;;;12.13;100.00;98943.17;109402;1251;60232;-54
2024/04/19 01:13:56;;;;;;;3.20;1.20;;;;;;;12.07;100.00;98942.39;109334;1251;60091;-54
2024/04/19 01:16:24;;;;;;;2.00;1.00;;;;;;;12.03;100.00;98956.07;109478;1251;75516;-53
2024/04/19 01:18:51;;;;;;;1.70;0.70;;;;;;;11.99;100.00;98959.75;109484;1251;66145;-54
2024/04/19 01:21:19;;;;;;;1.90;0.80;;;;;;;11.95;100.00;98954.10;109432;1251;72735;-53
2024/04/19 01:23:46;;;;;;;2.30;0.80;;;;;;;11.90;100.00;98957.18;109446;1251;59719;-54
2024/04/19 01:26:14;;;;;;;1.90;0.70;;;;;;;11.86;100.00;98967.36;109341;1251;60079;-54
2024/04/19 01:28:43;;;;;;;2.00;0.80;;;;;;;11.81;100.00;98977.77;109536;1251;75514;-54
2024/04/19 01:31:11;;;;;;;2.20;0.90;;;;;;;11.76;100.00;98983.41;109479;1251;67021;-54
2024/04/19 01:33:38;;;;;;;4.20;1.00;;;;;;;11.71;100.00;98989.34;109444;1251;72732;-54
2024/04/19 01:36:06;;;;;;;1.70;0.80;;;;;;;11.67;100.00;98993.75;109140;1251;398681;-53
2024/04/19 01:38:46;;;;;;;2.90;1.10;;;;;;;11.69;100.00;98999.73;109474;1251;60251;-54
2024/04/19 01:41:13;;;;;;;2.70;0.90;;;;;;;11.68;100.00;98998.57;109361;1251;74431;-54
2024/04/19 01:43:44;;;;;;;3.90;0.90;;;;;;;11.66;100.00;98986.88;109430;1251;67566;-54
2024/04/19 01:46:11;;;;;;;2.10;0.80;;;;;;;11.64;100.00;98977.48;109453;1251;71439;-54
2024/04/19 01:48:39;;;;;;;2.50;1.00;;;;;;;11.61;100.00;98974.38;109384;1251;60442;-54
2024/04/19 01:51:06;;;;;;;3.20;0.90;;;;;;;11.58;100.00;98977.88;109392;1251;60051;-54
2024/04/19 01:53:34;;;;;;;3.40;1.10;;;;;;;11.56;100.00;98982.05;109363;1251;74202;-54
2024/04/19 01:56:01;;;;;;;3.80;1.10;;;;;;;11.54;100.00;98992.59;109441;1251;67712;-53
2024/04/19 01:58:41;;;;;;;5.00;1.10;;;;;;;11.53;100.00;98996.13;109429;1251;72826;-54
2024/04/19 02:01:08;;;;;;;3.00;1.30;;;;;;;11.50;100.00;98993.32;109416;1251;59785;-54
2024/04/19 02:03:39;;;;;;;3.50;1.00;;;;;;;11.49;100.00;98995.73;109426;1251;59722;-54
2024/04/19 02:06:07;;;;;;;2.60;1.00;;;;;;;11.49;100.00;98999.67;109436;1251;75517;-53
2024/04/19 02:08:35;;;;;;;2.80;1.20;;;;;;;11.49;100.00;99003.12;109497;1251;66949;-53
2024/04/19 02:11:03;;;;;;;3.00;1.10;;;;;;;11.47;100.00;98999.80;109392;1251;71456;-54
2024/04/19 02:13:30;;;;;;;2.20;0.90;;;;;;;11.43;100.00;98999.10;109455;1251;60543;-54
2024/04/19 02:15:58;;;;;;;3.20;0.80;;;;;;;11.39;100.00;99005.77;109444;1251;60104;-53
2024/04/19 02:18:26;;;;;;;4.10;1.10;;;;;;;11.33;100.00;99012.38;109487;1251;75498;-53
2024/04/19 02:20:54;;;;;;;2.90;0.70;;;;;;;11.27;100.00;99019.19;109530;1251;65445;-53
2024/04/19 02:23:42;;;;;;;1.50;0.50;;;;;;;11.19;100.00;99022.77;109411;1251;71917;-54
2024/04/19 02:26:09;;;;;;;3.40;0.90;;;;;;;11.04;100.00;99029.59;109411;1252;60151;-54
2024/04/19 02:31:25;;;;;;;3.40;0.90;;;;;;;10.89;100.00;99046.01;109463;1251;75485;-55
2024/04/19 02:33:53;;;;;;;1.90;0.60;;;;;;;10.83;100.00;99044.93;109411;1251;66859;-54
2024/04/19 02:36:20;;;;;;;1.80;0.70;;;;;;;10.79;100.00;99055.64;109440;1253;71124;-54
2024/04/19 02:38:48;;;;;;;1.40;0.60;;;;;;;10.78;100.00;99066.80;109415;1251;60781;-55
2024/04/19 02:41:15;;;;;;;2.80;0.50;;;;;;;10.76;100.00;99074.98;109438;1251;60104;-54
2024/04/19 02:43:46;;;;;;;2.30;0.60;;;;;;;10.78;100.00;99080.06;109538;1251;75568;-54
2024/04/19 02:46:17;;;;;;;2.70;0.50;;;;;;;10.87;100.00;99085.56;109454;1251;66930;-54
2024/04/19 02:48:46;;;;;;;1.00;0.40;;;;;;;10.95;100.00;99085.34;109394;1252;71945;-55
2024/04/19 02:51:13;;;;;;;1.40;0.50;;;;;;;11.03;100.00;99083.63;109446;1253;61699;-55
2024/04/19 02:53:42;;;;;;;2.10;0.80;;;;;;;11.10;100.00;99081.60;109433;1251;60215;-54
2024/04/19 02:56:10;;;;;;;1.70;0.50;;;;;;;11.14;100.00;99087.27;109414;1252;74253;-54
2024/04/19 02:58:39;;;;;;;1.40;0.50;;;;;;;11.16;100.00;99091.41;109407;1252;67527;-54
2024/04/19 03:01:06;;;;;;;1.80;0.50;;;;;;;11.19;100.00;99093.67;109414;1253;71480;-55
2024/04/19 03:03:34;;;;;;;5.70;1.00;;;;;;;11.23;100.00;99095.40;109467;1252;59783;-54
2024/04/19 03:06:02;;;;;;;1.70;0.60;;;;;;;11.26;100.00;99105.69;109449;1251;60033;-54
2024/04/19 03:08:29;;;;;;;2.10;0.60;;;;;;;11.27;100.00;99104.19;109327;1251;75614;-55
2024/04/19 03:10:56;;;;;;;3.20;0.50;;;;;;;11.29;100.00;99111.40;109370;1253;65671;-55
2024/04/19 03:13:24;;;;;;;1.80;0.40;;;;;;;11.33;100.00;99118.49;109454;1251;72733;-55
2024/04/19 03:15:51;;;;;;;1.50;0.60;;;;;;;11.37;100.00;99124.33;109383;1251;59749;-55
2024/04/19 03:18:39;;;;;;;2.00;0.50;;;;;;;11.43;100.00;99126.80;109266;1253;60329;-55
2024/04/19 03:21:06;;;;;;;1.80;0.90;;;;;;;11.45;100.00;99130.29;109435;1253;75533;-54
2024/04/19 03:23:33;;;;;;;1.40;0.50;;;;;;;11.50;100.00;99121.98;109399;1253;66943;-55
2024/04/19 03:26:02;;;;;;;1.50;0.50;;;;;;;11.60;100.00;99120.92;109402;1252;71494;-55
2024/04/19 03:28:29;;;;;;;1.00;0.40;;;;;;;11.69;100.00;99119.13;109381;1252;59730;-55
2024/04/19 03:30:57;;;;;;;2.90;0.70;;;;;;;11.82;100.00;99119.67;109414;1253;60122;-55
2024/04/19 03:33:24;;;;;;;1.70;0.50;;;;;;;12.19;100.00;99115.57;109432;1252;74278;-55
2024/04/19 03:35:52;;;;;;;1.20;0.70;;;;;;;12.98;100.00;99105.60;109473;1252;66092;-55
2024/04/19 03:38:21;;;;;;;1.80;0.50;;;;;;;13.65;100.00;99095.71;109426;1253;72478;-55
2024/04/19 03:40:55;;;;;;;1.60;0.40;;;;;;;14.00;100.00;99089.31;109391;1252;60172;-55
2024/04/19 03:43:23;;;;;;;1.20;0.40;;;;;;;14.15;100.00;99081.83;109428;1251;60523;-55
2024/04/19 03:45:51;;;;;;;2.40;0.60;;;;;;;14.13;100.00;99071.36;109570;1251;75518;-55
2024/04/19 03:48:19;;;;;;;4.60;1.00;;;;;;;13.96;100.00;99071.75;109451;1251;66921;-56
2024/04/19 03:50:47;;;;;;;2.30;0.80;;;;;;;13.66;100.00;99069.06;109454;1251;72731;-55
2024/04/19 03:53:14;;;;;;;1.40;0.60;;;;;;;13.35;100.00;99073.20;109486;1251;60263;-55
2024/04/19 03:55:42;;;;;;;2.60;0.80;;;;;;;13.10;100.00;99092.73;109494;1251;60067;-55
2024/04/19 03:58:09;;;;;;;2.00;0.70;;;;;;;12.85;100.00;99093.02;109396;1253;75525;-55
2024/04/19 04:00:39;;;;;;;5.00;0.80;;;;;;;12.63;100.00;99102.46;109396;1251;67080;-56
2024/04/19 04:03:06;;;;;;;1.80;0.60;;;;;;;12.56;100.00;99115.73;109429;1252;71616;-53
2024/04/19 04:05:38;;;;;;;3.00;0.70;;;;;;;13.11;100.00;99118.44;109332;1253;60006;-54
2024/04/19 04:08:06;;;;;;;1.80;0.60;;;;;;;14.21;100.00;99119.83;109374;1253;59855;-55
2024/04/19 04:10:35;;;;;;;2.60;0.50;;;;;;;15.43;100.00;99116.27;109402;1254;75487;-54
2024/04/19 04:13:03;;;;;;;2.10;0.60;;;;;;;16.51;100.00;99115.98;109442;1253;65602;-54
2024/04/19 04:15:30;;;;;;;6.30;0.70;;;;;;;17.42;100.00;99113.35;109445;1251;71438;-54
2024/04/19 04:18:00;;;;;;;2.60;0.40;;;;;;;18.15;97.22;99107.70;109430;1251;59742;-54
2024/04/19 04:20:28;;;;;;;6.40;0.50;;;;;;;18.54;88.55;99109.30;109381;1252;61131;-55
2024/04/19 04:22:56;;;;;;;1.20;0.50;;;;;;;18.89;77.97;99120.14;109470;1254;75884;-54
2024/04/19 04:25:23;;;;;;;2.70;0.70;;;;;;;18.68;70.86;99129.64;109445;1251;67471;-55
2024/04/19 04:27:51;;;;;;;3.20;0.60;;;;;;;17.89;71.41;99126.02;109486;1251;73130;-54
2024/04/19 04:30:18;;;;;;;3.70;0.90;;;;;;;16.92;78.11;99136.66;109293;1253;61028;-55
2024/04/19 04:32:46;;;;;;;3.50;0.60;;;;;;;16.02;89.77;99139.05;109424;1251;60731;-54
2024/04/19 04:35:14;;;;;;;4.60;1.00;;;;;;;15.32;99.31;99152.15;109508;1251;74157;-54
2024/04/19 04:37:41;;;;;;;1.50;0.50;;;;;;;14.79;100.00;99161.15;109437;1251;65650;-54
2024/04/19 04:40:09;;;;;;;1.10;0.30;;;;;;;14.58;100.00;99157.50;109385;1251;72698;-54
2024/04/19 04:42:37;;;;;;;3.20;0.50;;;;;;;14.92;100.00;99164.89;109434;1251;60132;-54
2024/04/19 04:45:06;;;;;;;1.50;0.50;;;;;;;15.25;100.00;99161.71;109494;1251;59827;-54
2024/04/19 04:47:33;;;;;;;2.20;0.50;;;;;;;15.23;100.00;99165.52;109442;1251;74202;-54
2024/04/19 04:50:01;;;;;;;2.70;0.60;;;;;;;15.14;100.00;99171.63;109413;1253;67581;-54
2024/04/19 04:52:28;;;;;;;1.90;0.50;;;;;;;15.37;100.00;99171.83;109495;1251;72771;-54
2024/04/19 04:54:56;;;;;;;7.70;0.50;;;;;;;15.85;100.00;99168.23;109426;1252;60103;-54
2024/04/19 04:57:23;;;;;;;1.10;0.50;;;;;;;16.44;99.95;99164.85;109401;1252;60369;-54
2024/04/19 04:59:51;;;;;;;2.80;0.50;;;;;;;16.99;95.18;99163.47;109500;1252;75522;-54
2024/04/19 05:02:18;;;;;;;1.90;0.40;;;;;;;17.57;84.66;99163.86;109384;1253;65914;-55
2024/04/19 05:04:46;;;;;;;2.70;0.60;;;;;;;17.92;75.99;99173.45;109439;1253;75252;-54
2024/04/19 05:07:14;;;;;;;1.80;0.70;;;;;;;18.34;73.03;99179.28;109428;1254;61171;-54
2024/04/19 05:09:41;;;;;;;2.20;0.90;;;;;;;18.76;64.74;99178.74;109461;1253;61081;-54
2024/04/19 05:12:09;;;;;;;1.00;0.50;;;;;;;18.86;58.60;99189.69;109385;1252;77759;-57
2024/04/19 05:14:36;;;;;;;1.00;0.50;;;;;;;18.90;55.89;99189.11;109451;1253;66924;-55
2024/04/19 05:17:04;;;;;;;1.30;0.40;;;;;;;18.79;53.99;99202.45;109376;1253;72713;-54
2024/04/19 05:19:31;;;;;;;1.90;0.50;;;;;;;18.54;55.34;99203.81;109421;1252;59779;-54
2024/04/19 05:21:59;;;;;;;4.20;0.90;;;;;;;18.39;57.32;99205.79;109396;1253;60114;-55
2024/04/19 05:24:26;;;;;;;2.60;0.70;;;;;;;18.07;58.64;99208.89;109408;1253;75617;-54
2024/04/19 05:26:56;;;;;;;1.80;0.70;;;;;;;17.56;62.29;99218.78;109421;1253;66049;-54
2024/04/19 05:29:25;;;;;;;2.30;0.60;;;;;;;16.94;65.25;99224.24;109408;1253;71429;-55
2024/04/19 05:31:53;;;;;;;5.10;0.60;;;;;;;16.26;69.87;99237.45;109387;1253;59743;-54
2024/04/19 05:34:20;;;;;;;3.50;0.80;;;;;;;15.66;81.59;99245.46;109352;1252;60688;-55
2024/04/19 05:36:48;;;;;;;1.10;0.50;;;;;;;15.35;89.63;99250.77;109376;1253;77543;-54
2024/04/19 05:39:16;;;;;;;1.30;0.60;;;;;;;15.22;96.18;99259.14;109404;1253;66920;-54
2024/04/19 05:41:43;;;;;;;3.40;0.40;;;;;;;15.25;99.19;99264.91;109378;1253;73641;-54
2024/04/19 05:44:12;;;;;;;4.10;0.50;;;;;;;15.54;98.96;99263.10;109308;1251;60568;-54
2024/04/19 05:46:40;;;;;;;1.70;0.50;;;;;;;15.75;93.94;99265.70;109477;1251;61055;-56
2024/04/19 05:49:07;;;;;;;2.00;0.50;;;;;;;15.65;92.26;99279.79;109477;1251;75692;-53
2024/04/19 05:51:35;;;;;;;5.90;0.70;;;;;;;15.40;96.32;99282.57;109483;1251;69524;-54
2024/04/19 05:54:02;;;;;;;2.60;0.60;;;;;;;15.20;99.78;99291.48;109402;1251;71596;-55
2024/04/19 05:56:30;;;;;;;2.40;0.60;;;;;;;14.96;100.00;99296.52;109506;1251;62851;-54
2024/04/19 05:58:57;;;;;;;3.20;0.50;;;;;;;14.65;100.00;99305.23;109520;1251;60680;-54
2024/04/19 06:01:25;;;;;;;3.10;0.60;;;;;;;14.38;100.00;99306.59;109438;1252;76475;-55
2024/04/19 06:03:53;;;;;;;3.50;0.80;;;;;;;14.18;100.00;99306.71;109432;1251;69594;-53
2024/04/19 06:06:23;;;;;;;2.10;0.60;;;;;;;14.09;100.00;99319.50;109427;1251;74015;-53
2024/04/19 06:08:50;;;;;;;5.30;0.80;;;;;;;14.01;100.00;99321.58;109459;1251;60222;-55
2024/04/19 06:11:18;;;;;;;3.00;0.50;;;;;;;14.05;100.00;99328.23;109494;1251;62083;-55
2024/04/19 06:13:47;;;;;;;1.80;0.80;;;;;;;14.16;100.00;99331.39;109529;1251;77969;-56
2024/04/19 06:16:15;;;;;;;2.40;0.80;;;;;;;14.22;100.00;99326.81;109497;1251;68528;-55
2024/04/19 06:18:42;;;;;;;1.90;0.90;;;;;;;14.27;100.00;99325.26;109476;1251;73571;-54
2024/04/19 06:21:10;;;;;;;4.60;0.90;;;;;;;14.28;100.00;99333.88;109472;1251;61119;-54
2024/04/19 06:23:37;;;;;;;1.60;0.70;;;;;;;14.27;100.00;99340.41;109535;1251;59996;-53
2024/04/19 06:26:05;;;;;;;1.60;0.60;;;;;;;14.48;100.00;99343.73;109413;1252;75644;-54
2024/04/19 06:28:35;;;;;;;3.10;0.70;;;;;;;15.08;100.00;99343.61;109486;1251;67675;-54
2024/04/19 06:31:09;;;;;;;2.10;0.80;;;;;;;15.57;100.00;99357.30;109427;1251;75584;-55
2024/04/19 06:33:40;;;;;;;1.80;0.50;;;;;;;15.70;100.00;99357.86;109452;1251;62590;-55
2024/04/19 06:36:09;;;;;;;1.80;0.90;;;;;;;15.86;100.00;99364.55;109470;1251;62598;-55
2024/04/19 06:38:37;;;;;;;3.90;0.80;;;;;;;16.08;97.41;99366.52;109489;1251;77515;-55
2024/04/19 06:41:09;;;;;;;2.10;0.90;;;;;;;16.32;89.90;99367.55;109457;1251;69520;-54
2024/04/19 06:43:36;;;;;;;2.60;0.70;;;;;;;16.51;88.57;99369.86;109465;1253;74755;-55
2024/04/19 06:46:04;;;;;;;2.20;1.00;;;;;;;17.00;83.13;99365.98;109457;1251;62276;-55
2024/04/19 06:48:31;;;;;;;3.50;1.00;;;;;;;17.54;75.39;99367.05;109541;1251;62581;-55
2024/04/19 06:50:59;;;;;;;4.20;0.90;;;;;;;17.91;68.39;99363.02;109448;1251;77953;-55
2024/04/19 06:53:27;;;;;;;3.00;1.00;;;;;;;18.07;64.23;99373.40;109547;1251;67829;-55
2024/04/19 06:55:54;;;;;;;2.40;1.10;;;;;;;18.25;63.06;99372.84;109424;1251;75294;-55
2024/04/19 06:58:22;;;;;;;3.60;1.00;;;;;;;18.46;60.15;99375.06;109439;1251;62637;-55
2024/04/19 07:00:51;;;;;;;2.00;1.00;;;;;;;18.66;57.35;99372.89;109498;1251;61465;-55
2024/04/19 07:03:39;;;;;;;4.00;1.20;;;;;;;18.83;55.73;99374.20;109452;1251;78226;-55
2024/04/19 07:06:14;;;;;;;2.50;1.10;;;;;;;19.13;57.17;99368.74;109534;1251;67869;-55
2024/04/19 07:08:57;;;;;;;2.80;0.90;;;;;;;19.88;54.72;99368.20;109528;1251;74743;-55
2024/04/19 07:11:25;;;;;;;2.10;0.70;;;;;;;20.53;49.90;99366.45;109449;1251;61211;-55
2024/04/19 07:13:52;;;;;;;1.70;0.80;;;;;;;20.66;46.80;99368.69;109519;1251;62095;-55
2024/04/19 07:16:20;;;;;;;7.90;1.00;;;;;;;20.35;45.63;99373.16;109498;1251;77720;-55
2024/04/19 07:29:45;;;;;;;1.60;0.70;;;;;;;18.88;47.02;99392.21;102896;1289;613290;-57
2024/04/19 07:32:12;;;;;;;4.90;0.70;;;;;;;18.47;47.44;99391.27;104415;1275;234036;-55
2024/04/19 07:34:40;;;;;;;1.90;0.70;;;;;;;18.13;49.38;99402.16;104986;1267;62973;-55
2024/04/19 07:37:08;;;;;;;1.80;0.70;;;;;;;17.86;51.34;99410.16;104745;1266;75775;-56
2024/04/19 07:39:36;;;;;;;1.60;0.70;;;;;;;17.67;53.32;99420.93;104837;1273;69063;-56
2024/04/19 07:42:04;;;;;;;4.40;0.90;;;;;;;17.55;55.46;99429.52;104613;1267;75693;-57
2024/04/19 07:44:32;;;;;;;2.10;1.10;;;;;;;17.54;57.54;99433.30;104719;1273;61540;-55
2024/04/19 07:47:00;;;;;;;2.40;1.00;;;;;;;17.51;56.82;99433.96;104758;1272;61906;-55
2024/04/19 07:49:28;;;;;;;2.60;0.50;;;;;;;17.35;56.87;99430.15;104521;1267;76017;-57
2024/04/19 07:51:56;;;;;;;2.00;0.60;;;;;;;17.27;58.24;99436.66;104758;1270;66792;-56
2024/04/19 07:54:24;;;;;;;3.10;1.00;;;;;;;17.32;57.96;99443.71;104591;1267;75466;-56
2024/04/19 07:56:52;;;;;;;3.80;0.70;;;;;;;17.30;58.80;99445.16;104554;1271;61512;-56
2024/04/19 07:59:19;;;;;;;1.70;0.60;;;;;;;17.15;58.99;99441.94;104670;1267;63015;-56
2024/04/19 08:01:47;;;;;;;7.70;1.50;;;;;;;16.81;61.25;99456.27;104432;1270;76711;-58
2024/04/19 08:04:14;;;;;;;2.20;0.70;;;;;;;16.48;66.55;99459.67;104481;1273;69512;-55
2024/04/19 08:06:42;;;;;;;2.90;0.70;;;;;;;16.31;70.70;99456.99;104617;1267;75671;-56
2024/04/19 08:09:10;;;;;;;2.90;1.00;;;;;;;16.22;71.53;99457.76;105121;1266;63016;-57
2024/04/19 08:11:41;;;;;;;2.20;0.90;;;;;;;16.16;71.31;99462.56;105029;1260;61637;-55
2024/04/19 08:14:09;;;;;;;2.40;0.50;;;;;;;16.14;72.81;99469.24;105143;1266;76781;-56
2024/04/19 08:16:36;;;;;;;3.40;0.50;;;;;;;16.24;76.77;99474.56;104980;1264;69266;-57
2024/04/19 08:19:04;;;;;;;1.70;0.60;;;;;;;16.50;78.01;99477.48;104977;1266;75675;-56
2024/04/19 08:21:33;;;;;;;0.90;0.40;;;;;;;16.78;67.98;99476.05;105168;1260;63021;-58
2024/04/19 08:24:02;;;;;;;3.50;0.70;;;;;;;16.98;66.03;99478.02;105190;1263;62054;-58
2024/04/19 08:26:29;;;;;;;1.20;0.30;;;;;;;17.17;60.12;99475.98;105124;1266;75339;-56
2024/04/19 08:28:57;;;;;;;2.30;0.50;;;;;;;17.26;58.65;99482.27;105211;1261;70000;-56
2024/04/19 08:31:25;;;;;;;1.90;0.40;;;;;;;17.54;53.55;99483.36;104944;1266;74739;-57
2024/04/19 08:33:53;;;;;;;11.30;1.10;;;;;;;17.94;49.72;99487.64;104753;1266;62576;-57
2024/04/19 08:36:22;;;;;;;2.50;0.50;;;;;;;18.29;47.81;99485.52;105147;1265;62510;-56
2024/04/19 08:38:51;;;;;;;2.30;0.40;;;;;;;18.49;46.45;99481.27;105046;1265;76360;-56
2024/04/19 08:41:19;;;;;;;1.40;0.40;;;;;;;18.61;46.15;99491.70;105210;1265;68158;-56
2024/04/19 08:43:46;;;;;;;4.30;1.30;;;;;;;18.83;46.15;99490.55;105254;1255;75709;-55
2024/04/19 08:46:15;;;;;;;0.90;0.50;;;;;;;18.90;44.55;99498.30;105297;1260;62582;-57
2024/04/19 08:48:42;;;;;;;2.00;0.40;;;;;;;18.73;44.68;99502.78;105301;1260;63464;-55
2024/04/19 08:51:13;;;;;;;4.70;0.50;;;;;;;18.78;44.67;99507.77;104999;1260;76771;-58
2024/04/19 08:53:50;;;;;;;1.90;0.70;;;;;;;19.02;43.08;99509.23;105281;1259;69863;-56
2024/04/19 08:56:18;;;;;;;1.20;0.50;;;;;;;19.06;42.70;99517.65;105358;1257;75665;-57
2024/04/19 08:58:45;;;;;;;3.00;0.40;;;;;;;19.11;42.24;99528.66;105314;1255;61531;-56
2024/04/19 09:01:17;;;;;;;1.40;0.50;;;;;;;19.11;41.37;99523.76;105368;1269;61662;-56
2024/04/19 09:03:46;;;;;;;2.50;0.80;;;;;;;18.95;41.09;99532.80;105370;1260;76386;-56
2024/04/19 09:06:14;;;;;;;1.20;0.60;;;;;;;18.66;41.15;99538.09;105367;1257;69846;-56
2024/04/19 09:08:42;;;;;;;3.60;0.80;;;;;;;18.45;42.18;99545.69;105455;1260;75741;-55
2024/04/19 09:11:14;;;;;;;9.80;1.10;;;;;;;18.36;42.86;99554.59;105336;1263;62163;-59
2024/04/19 09:13:43;;;;;;;1.40;0.70;;;;;;;18.30;43.15;99554.59;105416;1257;62893;-59
2024/04/19 09:16:11;;;;;;;2.30;0.90;;;;;;;18.21;43.52;99558.79;105189;1261;75423;-55
2024/04/19 09:18:38;;;;;;;2.20;1.10;;;;;;;18.10;43.83;99558.67;105515;1260;69869;-55
2024/04/19 09:21:08;;;;;;;1.30;0.70;;;;;;;17.90;43.94;99563.23;105513;1257;75737;-56
2024/04/19 09:23:35;;;;;;;1.60;0.80;;;;;;;17.84;45.23;99572.17;105326;1254;63035;-57
2024/04/19 09:26:03;;;;;;;1.80;0.80;;;;;;;18.04;45.70;99566.80;106438;1260;62938;-56
2024/04/19 09:28:31;;;;;;;2.00;0.60;;;;;;;18.39;45.26;99558.46;105907;1254;76151;-56
2024/04/19 09:30:59;;;;;;;3.40;1.10;;;;;;;18.77;44.33;99556.61;105563;1260;69640;-59
2024/04/19 09:33:27;;;;;;;1.70;0.60;;;;;;;19.16;42.63;99562.51;105440;1263;74036;-55
2024/04/19 09:35:56;;;;;;;3.10;0.70;;;;;;;19.40;42.31;99563.79;105566;1259;61577;-55
2024/04/19 09:38:24;;;;;;;1.90;1.00;;;;;;;19.65;42.27;99561.00;105630;1260;62957;-55
2024/04/19 09:40:52;;;;;;;2.00;1.10;;;;;;;19.93;41.47;99562.14;105445;1256;76271;-57
2024/04/19 09:43:23;;;;;;;5.60;2.20;;;;;;;20.15;40.40;99562.48;105585;1255;69680;-57
2024/04/19 09:45:56;;;;;;;2.00;1.10;;;;;;;20.06;39.17;99569.89;105301;1260;75941;-57
2024/04/19 09:48:28;;;;;;;1.70;1.10;;;;;;;19.71;39.48;99568.36;105533;1260;62010;-56
2024/04/19 09:50:57;;;;;;;5.00;0.90;;;;;;;19.58;40.08;99572.67;105454;1254;62988;-56
2024/04/19 09:53:30;;;;;;;7.80;1.30;;;;;;;19.62;39.29;99578.48;105485;1259;76475;-55
2024/04/19 09:56:37;;;;;;;2.00;0.90;;;;;;;19.62;38.75;99580.44;105533;1257;69843;-56
2024/04/19 09:59:05;;;;;;;2.00;1.00;;;;;;;19.67;38.90;99580.05;105420;1258;74138;-56
2024/04/19 10:01:34;;;;;;;2.30;0.90;;;;;;;19.65;38.61;99591.83;104992;1270;61477;-55
2024/04/19 10:04:04;;;;;;;2.30;0.80;;;;;;;19.58;39.16;99593.26;105456;1260;62997;-56
2024/04/19 10:06:35;;;;;;;3.00;1.10;;;;;;;19.69;38.68;99592.00;105438;1259;76933;-56
2024/04/19 10:09:14;;;;;;;4.10;1.10;;;;;;;19.80;38.15;99599.44;105341;1260;68868;-56
2024/04/19 10:11:42;;;;;;;3.00;0.80;;;;;;;19.82;37.88;99605.33;105271;1260;74567;-56
2024/04/19 10:14:09;;;;;;;2.50;0.80;;;;;;;19.85;38.26;99601.80;105175;1255;61616;-56
2024/04/19 10:16:38;;;;;;;1.50;0.90;;;;;;;20.12;38.23;99604.88;105351;1264;62491;-56
2024/04/19 10:19:06;;;;;;;2.80;1.30;;;;;;;20.50;37.11;99605.09;105574;1260;76878;-55
2024/04/19 10:21:36;;;;;;;1.30;0.70;;;;;;;20.72;36.83;99610.90;105453;1254;69131;-56
2024/04/19 10:24:13;;;;;;;2.00;0.80;;;;;;;20.84;37.02;99606.42;105463;1257;75564;-56
2024/04/19 10:26:45;;;;;;;1.60;0.70;;;;;;;20.97;36.58;99613.90;105259;1257;63212;-56
2024/04/19 10:29:14;;;;;;;1.60;0.90;;;;;;;21.03;35.54;99612.71;105446;1254;61422;-55
2024/04/19 10:31:48;;;;;;;1.30;0.70;;;;;;;21.02;35.47;99621.15;105604;1260;75694;-55
2024/04/19 10:34:18;;;;;;;1.60;0.70;;;;;;;21.05;36.21;99622.98;105426;1261;69839;-55
2024/04/19 10:36:46;;;;;;;1.50;0.90;;;;;;;21.34;35.18;99623.90;105422;1259;75711;-58
2024/04/19 10:39:14;;;;;;;1.70;0.60;;;;;;;21.24;34.67;99627.67;105535;1260;62581;-55
2024/04/19 10:41:53;;;;;;;2.10;0.90;;;;;;;20.90;35.42;99643.19;105372;1261;61485;-55
2024/04/19 10:44:21;;;;;;;2.10;0.90;;;;;;;20.74;36.65;99646.48;105283;1257;76359;-55
2024/04/19 10:46:51;;;;;;;3.50;0.90;;;;;;;20.80;36.37;99648.18;105527;1254;70310;-56
2024/04/19 10:49:20;;;;;;;1.90;0.60;;;;;;;20.91;35.85;99653.00;105566;1254;75518;-56
2024/04/19 10:51:50;;;;;;;1.40;0.70;;;;;;;20.90;35.31;99656.77;105467;1260;61932;-57
2024/04/19 10:54:18;;;;;;;1.50;0.70;;;;;;;20.68;35.59;99654.16;105435;1255;61479;-57
2024/04/19 10:56:45;;;;;;;2.00;0.90;;;;;;;20.48;35.93;99662.96;105423;1260;76757;-57
2024/04/19 10:59:13;;;;;;;1.60;0.90;;;;;;;20.19;35.94;99663.95;105210;1263;69838;-57
2024/04/19 11:01:42;;;;;;;1.80;0.80;;;;;;;19.88;36.60;99663.58;105603;1259;74624;-56
2024/04/19 11:04:11;;;;;;;1.00;0.70;;;;;;;19.72;37.50;99666.00;105463;1260;62072;-56
2024/04/19 11:06:39;;;;;;;2.40;0.70;;;;;;;19.56;37.33;99670.02;105439;1257;61924;-56
2024/04/19 11:09:07;;;;;;;4.10;1.00;;;;;;;19.31;37.90;99674.20;105028;1261;75223;-56
2024/04/19 11:11:38;;;;;;;2.90;0.80;;;;;;;19.15;38.61;99673.79;105630;1259;69283;-58
2024/04/19 11:14:09;;;;;;;3.00;1.10;;;;;;;19.20;39.26;99678.10;105375;1257;75679;-57
2024/04/19 11:16:37;;;;;;;;;;;;;;;19.43;38.58;99676.19;105324;1257;63114;-57
2024/04/19 11:19:05;;;;;;;2.20;0.80;;;;;;;19.62;37.44;99679.27;105593;1260;62297;-56
2024/04/19 11:21:33;;;;;;;2.40;0.80;;;;;;;19.67;36.91;99683.96;105373;1257;76766;-56
2024/04/19 11:24:02;;;;;;;1.00;0.50;;;;;;;19.62;37.42;99689.09;105227;1254;67653;-56
2024/04/19 11:26:30;;;;;;;1.00;0.50;;;;;;;19.55;37.18;99687.52;105624;1259;75600;-56
2024/04/19 11:28:58;;;;;;;1.20;0.80;;;;;;;19.64;37.55;99686.47;105541;1254;62024;-56
2024/04/19 11:31:26;;;;;;;1.90;0.60;;;;;;;19.82;36.99;99693.09;105498;1257;62049;-56
2024/04/19 11:33:57;;;;;;;1.50;0.80;;;;;;;20.04;36.32;99688.36;105432;1254;76764;-56
2024/04/19 11:36:28;;;;;;;1.00;0.40;;;;;;;20.08;35.51;99698.16;105515;1257;68768;-56
2024/04/19 11:38:56;;;;;;;3.20;0.60;;;;;;;19.83;35.89;99697.10;105506;1260;74244;-56
2024/04/19 11:41:23;;;;;;;1.20;0.50;;;;;;;19.60;35.96;99696.44;105226;1260;61876;-56
2024/04/19 11:43:51;;;;;;;1.00;0.50;;;;;;;19.62;36.27;99688.04;105505;1254;62956;-56